Sherbro International Airport

Jump to: basic info | weather | comments

Related pages: nearby airports | nearby navaids | notams | map

Basic information (top)

Codes: BTE GFBN
Location: lon 7.532420, lat -12.518900, elev 14 ft / 4 m msl
Status: medium_airport
Scheduled airline service: yes
Links: Wikipedia Mobile

Weather (top)

Current conditions for Lungi International Airport 77nm (142km) NNW (rec'd 2014/08/21 06:00Z):

GFLL 210600Z 08005KT 9999 BKN010 FEW027CB 23/22 Q1012 RMK CB-NE

Airport forecast for Lungi International Airport 77nm (142km) NNW (rec'd 2014/08/21 06:00Z):

TAF GFLL 210400Z 2106/2212 23009KT 9999 TA BKN010 FEW028CB 
      TEMPO 2112/2118 27006KT 9000 -RA BKN010 
      BECMG 2121/2123 29006KT 9999 BKN010 
      TEMPO 2205/2211 27008KT 9999 BKN011 SCT013 FE0017CB

Latest comments (top)

No comments yet for Sherbro International Airport

More... (top)

See also NOTAMs and nearby airports and navaids, or visit the Sherbro International Airport page at the main OurAirports website..